createdAt,value
2023-01-26T00:02:20.095Z,2.60
2023-01-26T00:04:48.013Z,2.50
2023-01-26T00:07:15.939Z,2.60
2023-01-26T00:09:43.819Z,2.60
2023-01-26T00:12:13.167Z,2.50
2023-01-26T00:14:52.902Z,2.50
2023-01-26T00:17:28.005Z,2.60
2023-01-26T00:19:57.745Z,2.60
2023-01-26T00:22:26.777Z,2.50
2023-01-26T00:24:54.728Z,2.50
2023-01-26T00:27:23.927Z,2.50
2023-01-26T00:29:51.840Z,2.50
2023-01-26T00:32:19.808Z,2.50
2023-01-26T00:34:47.809Z,2.50
2023-01-26T00:37:15.657Z,2.50
2023-01-26T00:39:43.548Z,2.50
2023-01-26T00:42:13.914Z,2.50
2023-01-26T00:44:44.218Z,2.50
2023-01-26T00:47:13.629Z,2.50
2023-01-26T00:49:41.474Z,2.50
2023-01-26T00:52:09.396Z,2.50
2023-01-26T00:54:37.296Z,2.50
2023-01-26T00:57:05.469Z,2.50
2023-01-26T00:59:33.340Z,2.50
2023-01-26T01:02:03.154Z,2.50
2023-01-26T01:04:31.625Z,2.50
2023-01-26T01:06:59.734Z,2.50
2023-01-26T01:09:27.869Z,2.50
2023-01-26T01:11:55.717Z,2.40
2023-01-26T01:14:23.631Z,2.50
2023-01-26T01:16:51.610Z,2.50
2023-01-26T01:19:20.903Z,2.50
2023-01-26T01:21:48.824Z,2.50
2023-01-26T01:24:16.766Z,2.50
2023-01-26T01:26:44.655Z,2.50
2023-01-26T01:29:14.165Z,2.50
2023-01-26T01:31:43.289Z,2.50
2023-01-26T01:34:11.326Z,2.50
2023-01-26T01:36:40.713Z,2.50
2023-01-26T01:39:08.591Z,2.50
2023-01-26T01:41:36.575Z,2.50
2023-01-26T01:44:17.576Z,2.50
2023-01-26T01:46:54.424Z,2.50
2023-01-26T01:49:26.902Z,2.50
2023-01-26T01:52:00.186Z,2.50
2023-01-26T01:54:32.798Z,2.40
2023-01-26T01:57:06.591Z,2.40
2023-01-26T01:59:35.035Z,2.50
2023-01-26T02:02:02.974Z,2.50
2023-01-26T02:04:31.027Z,2.50
2023-01-26T02:07:01.521Z,2.40
2023-01-26T02:09:51.917Z,2.50
2023-01-26T02:12:22.849Z,2.50
2023-01-26T02:14:53.121Z,2.50
2023-01-26T02:17:21.289Z,2.50
2023-01-26T02:19:58.192Z,2.50
2023-01-26T02:22:38.539Z,2.50
2023-01-26T02:25:14.426Z,2.50
2023-01-26T02:27:44.058Z,2.50
2023-01-26T02:30:13.930Z,2.50
2023-01-26T02:32:41.816Z,2.50
2023-01-26T02:35:10.502Z,2.50
2023-01-26T02:37:41.312Z,2.50
2023-01-26T02:40:17.211Z,2.50
2023-01-26T02:42:45.531Z,2.50
2023-01-26T02:45:15.960Z,2.50
2023-01-26T02:47:44.877Z,2.50
2023-01-26T02:50:12.715Z,2.50
2023-01-26T02:52:40.970Z,2.50
2023-01-26T02:55:25.416Z,2.50
2023-01-26T02:57:56.197Z,2.50
2023-01-26T03:00:26.002Z,2.50
2023-01-26T03:02:56.605Z,2.60
2023-01-26T03:05:24.541Z,2.50
2023-01-26T03:07:52.367Z,2.50
2023-01-26T03:10:20.470Z,2.50
2023-01-26T03:12:48.362Z,2.50
2023-01-26T03:15:42.859Z,2.50
2023-01-26T03:18:29.738Z,2.50
2023-01-26T03:21:16.671Z,2.50
2023-01-26T03:24:02.052Z,2.50
2023-01-26T03:26:47.535Z,2.50
2023-01-26T03:29:15.488Z,2.50
2023-01-26T03:31:44.862Z,2.50
2023-01-26T03:34:13.022Z,2.50
2023-01-26T03:36:40.971Z,2.50
2023-01-26T03:39:08.833Z,2.50
2023-01-26T03:41:53.983Z,2.50
2023-01-26T03:44:39.462Z,2.50
2023-01-26T03:47:26.139Z,2.50
2023-01-26T03:50:11.963Z,2.50
2023-01-26T03:52:57.291Z,2.50
2023-01-26T03:55:42.704Z,2.50
2023-01-26T03:58:10.793Z,2.50
2023-01-26T04:00:38.732Z,2.50
2023-01-26T04:03:25.681Z,2.50
2023-01-26T04:06:15.424Z,2.50
2023-01-26T04:08:44.741Z,2.50
2023-01-26T04:11:12.680Z,2.50
2023-01-26T04:13:58.136Z,2.50
2023-01-26T04:16:43.666Z,2.60
2023-01-26T04:19:30.242Z,2.50
2023-01-26T04:22:00.307Z,2.50
2023-01-26T04:24:28.287Z,2.50
2023-01-26T04:26:56.254Z,2.50
2023-01-26T04:29:24.188Z,2.50
2023-01-26T04:31:52.149Z,2.50
2023-01-26T04:34:21.842Z,2.50
2023-01-26T04:36:49.762Z,2.50
2023-01-26T04:39:17.692Z,2.50
2023-01-26T04:41:45.563Z,2.50
2023-01-26T04:44:13.585Z,2.50
2023-01-26T04:46:41.567Z,2.50
2023-01-26T04:49:10.218Z,2.50
2023-01-26T04:51:39.548Z,2.40
2023-01-26T04:54:07.591Z,2.40
2023-01-26T04:56:36.719Z,2.40
2023-01-26T04:59:06.495Z,2.40
2023-01-26T05:01:34.674Z,2.40
2023-01-26T05:04:03.022Z,2.40
2023-01-26T05:06:31.050Z,2.40
2023-01-26T05:09:00.570Z,2.40
2023-01-26T05:11:28.856Z,2.40
2023-01-26T05:13:56.816Z,2.40
2023-01-26T05:16:25.147Z,2.40
2023-01-26T05:18:54.235Z,2.40
2023-01-26T05:21:24.581Z,2.40
2023-01-26T05:23:52.641Z,2.30
2023-01-26T05:26:22.272Z,2.30
2023-01-26T05:28:50.306Z,2.40
2023-01-26T05:31:18.263Z,2.40
2023-01-26T05:33:46.208Z,2.40
2023-01-26T05:36:14.116Z,2.40
2023-01-26T05:38:42.043Z,2.40
2023-01-26T05:41:09.916Z,2.40
2023-01-26T05:43:39.324Z,2.40
2023-01-26T05:46:07.352Z,2.40
2023-01-26T05:48:35.429Z,2.40
2023-01-26T05:51:04.103Z,2.30
2023-01-26T05:53:32.107Z,2.40
2023-01-26T05:56:00.186Z,2.40
2023-01-26T05:58:28.167Z,2.30
2023-01-26T06:00:57.694Z,2.30
2023-01-26T06:03:25.882Z,2.40
2023-01-26T06:05:55.299Z,2.30
2023-01-26T06:08:23.410Z,2.30
2023-01-26T06:10:51.476Z,2.30
2023-01-26T08:21:07.966Z,2.00
2023-01-26T08:23:37.498Z,2.10
2023-01-26T08:26:06.999Z,2.10
2023-01-26T08:28:35.902Z,2.10
2023-01-26T08:31:08.604Z,2.20
2023-01-26T08:33:36.606Z,2.10
2023-01-26T08:36:05.527Z,2.20
2023-01-26T08:38:34.486Z,2.10
2023-01-26T08:41:04.854Z,2.10
2023-01-26T08:43:33.058Z,2.10
2023-01-26T08:46:01.132Z,2.10
2023-01-26T08:48:31.035Z,2.10
2023-01-26T08:51:00.646Z,2.20
2023-01-26T08:53:33.855Z,2.20
2023-01-26T08:56:04.332Z,2.30
2023-01-26T08:58:33.614Z,2.20
2023-01-26T09:01:05.675Z,2.20
2023-01-26T09:03:34.154Z,2.20
2023-01-26T09:06:04.338Z,2.30
2023-01-26T09:08:32.461Z,2.30
2023-01-26T09:11:00.696Z,2.30
2023-01-26T09:13:30.055Z,2.30
2023-01-26T09:15:57.999Z,2.40
2023-01-26T09:18:25.994Z,2.40
2023-01-26T09:20:55.934Z,2.30
2023-01-26T09:23:23.842Z,2.40
2023-01-26T09:25:54.408Z,2.40
2023-01-26T09:28:22.307Z,2.40
2023-01-26T09:30:51.685Z,2.40
2023-01-26T09:33:21.487Z,2.40
2023-01-26T09:35:50.044Z,2.50
2023-01-26T09:38:17.912Z,2.40
2023-01-26T09:40:56.456Z,2.40
2023-01-26T09:43:34.016Z,2.40
2023-01-26T09:46:09.962Z,2.40
2023-01-26T09:48:44.778Z,2.40
2023-01-26T09:51:19.758Z,2.40
2023-01-26T09:53:55.559Z,2.30
2023-01-26T09:56:29.235Z,2.40
2023-01-26T09:59:01.872Z,2.40
2023-01-26T10:01:39.927Z,2.40
2023-01-26T10:04:16.174Z,2.40
2023-01-26T10:06:45.147Z,2.40
2023-01-26T10:09:17.122Z,2.50
2023-01-26T10:11:47.644Z,2.50
2023-01-26T10:14:20.352Z,2.50
2023-01-26T10:16:52.688Z,2.40
2023-01-26T10:19:28.711Z,2.50
2023-01-26T10:21:59.010Z,2.50
2023-01-26T10:24:27.542Z,2.50
2023-01-26T10:26:59.344Z,2.50
2023-01-26T10:29:27.241Z,2.60
2023-01-26T10:31:56.849Z,2.60
2023-01-26T10:34:27.267Z,2.60
2023-01-26T10:37:02.920Z,2.60
2023-01-26T10:39:31.018Z,2.60
2023-01-26T10:42:00.168Z,2.50
2023-01-26T10:44:34.026Z,2.60
2023-01-26T10:47:16.417Z,2.50
2023-01-26T10:49:45.175Z,2.40
2023-01-26T10:52:18.685Z,2.40
2023-01-26T10:54:47.481Z,2.50
2023-01-26T10:57:19.476Z,2.40
2023-01-26T10:59:54.761Z,2.40
2023-01-26T11:02:28.686Z,2.30
2023-01-26T11:05:05.414Z,2.30
2023-01-26T11:07:38.533Z,2.30
2023-01-26T11:10:23.519Z,2.30
2023-01-26T11:12:55.535Z,2.40
2023-01-26T11:15:25.464Z,2.30
2023-01-26T11:18:01.671Z,2.40
2023-01-26T11:20:47.666Z,2.40
2023-01-26T11:23:26.070Z,2.40
2023-01-26T11:26:21.943Z,2.40
2023-01-26T11:29:04.806Z,2.40
2023-01-26T11:31:46.956Z,2.50
2023-01-26T11:34:28.975Z,2.40
2023-01-26T11:37:04.934Z,2.20
2023-01-26T11:39:42.751Z,2.30
2023-01-26T11:42:25.369Z,2.30
2023-01-26T11:45:18.438Z,2.40
2023-01-26T11:48:11.004Z,2.40
2023-01-26T11:50:46.259Z,2.40
2023-01-26T11:53:32.538Z,2.40
2023-01-26T11:56:14.129Z,2.40
2023-01-26T11:58:45.928Z,2.40
2023-01-26T12:01:21.167Z,2.40
2023-01-26T12:03:51.198Z,2.50
2023-01-26T12:06:25.338Z,2.50
2023-01-26T12:08:55.994Z,2.50
2023-01-26T12:11:27.294Z,2.40
2023-01-26T12:14:08.260Z,2.40
2023-01-26T12:16:46.680Z,2.40
2023-01-26T12:19:21.787Z,2.40
2023-01-26T12:21:52.075Z,2.40
2023-01-26T12:27:23.040Z,2.20
2023-01-26T12:29:56.712Z,2.20
2023-01-26T12:32:25.755Z,2.20
2023-01-26T12:34:53.743Z,2.20
2023-01-26T12:37:47.209Z,2.30
2023-01-26T12:40:31.204Z,2.20
2023-01-26T12:43:16.898Z,2.20
2023-01-26T12:45:48.990Z,2.20
2023-01-26T12:48:22.473Z,2.20
2023-01-26T12:50:54.675Z,2.20
2023-01-26T12:53:31.469Z,2.30
2023-01-26T12:56:14.261Z,2.10
2023-01-26T12:58:45.327Z,2.00
2023-01-26T13:01:15.730Z,1.90
2023-01-26T13:03:46.583Z,1.90
2023-01-26T13:06:21.966Z,2.00
2023-01-26T13:09:00.652Z,1.80
2023-01-26T13:11:49.819Z,1.80
2023-01-26T13:14:30.595Z,1.90
2023-01-26T13:16:59.234Z,1.80
2023-01-26T13:19:37.580Z,1.80
2023-01-26T13:22:25.758Z,1.80
2023-01-26T13:25:00.287Z,1.90
2023-01-26T13:27:34.467Z,1.90
2023-01-26T13:30:03.348Z,2.00
2023-01-26T13:33:13.646Z,2.00
2023-01-26T13:35:42.187Z,2.00
2023-01-26T13:38:21.260Z,2.00
2023-01-26T13:40:51.358Z,2.10
2023-01-26T13:43:27.931Z,2.10
2023-01-26T13:46:13.464Z,2.10
2023-01-26T13:48:47.989Z,2.10
2023-01-26T13:51:19.955Z,2.10
2023-01-26T13:53:59.815Z,2.10
2023-01-26T13:56:31.451Z,2.10
2023-01-26T13:59:12.081Z,2.20
2023-01-26T14:01:45.046Z,2.20
2023-01-26T14:04:18.025Z,2.20
2023-01-26T14:06:50.579Z,2.10
2023-01-26T14:09:19.444Z,2.10
2023-01-26T14:11:57.705Z,2.10
2023-01-26T14:14:27.718Z,2.20
2023-01-26T14:16:57.950Z,2.20
2023-01-26T14:19:26.780Z,2.20
2023-01-26T14:21:56.869Z,2.20
2023-01-26T14:24:34.557Z,2.20
2023-01-26T14:27:04.891Z,2.20
2023-01-26T14:29:38.781Z,2.20
2023-01-26T14:32:15.801Z,2.20
2023-01-26T14:34:53.281Z,2.20
2023-01-26T14:37:21.188Z,2.20
2023-01-26T14:39:49.063Z,2.20
2023-01-26T14:42:20.040Z,2.20
2023-01-26T14:44:48.133Z,2.10
2023-01-26T14:47:20.818Z,2.10
2023-01-26T14:49:55.150Z,2.10
2023-01-26T14:52:25.516Z,2.10
2023-01-26T14:54:54.705Z,2.10
2023-01-26T15:06:44.977Z,2.10
2023-01-26T15:09:24.239Z,2.00
2023-01-26T15:12:15.027Z,2.00
2023-01-26T15:14:50.510Z,1.90
2023-01-26T15:17:37.620Z,1.90
2023-01-26T15:20:12.758Z,1.90
2023-01-26T15:22:41.134Z,1.90
2023-01-26T15:25:21.411Z,1.90
2023-01-26T15:27:52.340Z,1.90
2023-01-26T15:30:24.635Z,1.80
2023-01-26T15:32:52.832Z,1.80
2023-01-26T15:35:24.668Z,1.80
2023-01-26T15:38:02.569Z,1.80
2023-01-26T15:40:33.020Z,1.80
2023-01-26T15:43:22.428Z,1.80
2023-01-26T15:45:52.985Z,1.80
2023-01-26T15:48:21.483Z,1.70
2023-01-26T15:50:49.751Z,1.70
2023-01-26T15:53:20.244Z,1.70
2023-01-26T15:55:52.881Z,1.70
2023-01-26T15:58:21.313Z,1.60
2023-01-26T16:00:49.425Z,1.60
2023-01-26T16:03:19.324Z,1.60
2023-01-26T16:05:48.399Z,1.70
2023-01-26T16:08:17.028Z,1.60
2023-01-26T16:10:45.665Z,1.50
2023-01-26T16:13:17.904Z,1.50
2023-01-26T16:15:47.513Z,1.50
2023-01-26T16:18:15.955Z,1.40
2023-01-26T16:20:45.649Z,1.40
2023-01-26T16:23:19.909Z,1.30
2023-01-26T16:25:49.078Z,1.20
2023-01-26T16:28:18.563Z,1.20
2023-01-26T16:30:48.169Z,1.20
2023-01-26T16:33:18.000Z,1.20
2023-01-26T16:35:45.863Z,1.20
2023-01-26T16:38:13.924Z,1.10
2023-01-26T16:40:43.709Z,1.20
2023-01-26T16:43:16.871Z,1.10
2023-01-26T16:45:46.137Z,1.20
2023-01-26T16:48:16.003Z,1.20
2023-01-26T16:50:45.478Z,1.20
2023-01-26T16:53:19.292Z,1.20
2023-01-26T16:55:50.361Z,1.20
2023-01-26T16:58:18.207Z,1.20
2023-01-26T17:00:47.472Z,1.20
2023-01-26T17:03:15.630Z,1.20
2023-01-26T17:05:43.531Z,1.20
2023-01-26T17:08:11.654Z,1.20
2023-01-26T17:10:51.918Z,1.20
2023-01-26T17:13:27.601Z,1.20
2023-01-26T17:15:57.495Z,1.10
2023-01-26T17:18:25.552Z,1.10
2023-01-26T17:20:53.358Z,1.20
2023-01-26T17:23:43.039Z,1.10
2023-01-26T17:26:12.168Z,1.20
2023-01-26T17:28:39.978Z,1.10
2023-01-26T17:31:14.275Z,1.10
2023-01-26T17:33:42.241Z,1.10
2023-01-26T17:36:10.979Z,1.00
2023-01-26T17:38:38.820Z,1.00
2023-01-26T17:41:07.197Z,1.00
2023-01-26T17:43:35.309Z,1.00
2023-01-26T17:46:07.798Z,1.10
2023-01-26T17:48:38.373Z,1.10
2023-01-26T17:51:07.797Z,1.10
2023-01-26T17:53:38.434Z,1.00
2023-01-26T17:56:08.499Z,1.00
2023-01-26T17:58:39.345Z,1.00
2023-01-26T18:01:08.726Z,1.00
2023-01-26T18:03:42.190Z,1.10
2023-01-26T18:06:10.868Z,1.10
2023-01-26T18:08:39.968Z,1.20
2023-01-26T18:11:09.762Z,1.20
2023-01-26T18:13:37.949Z,1.20
2023-01-26T18:16:07.446Z,1.20
2023-01-26T18:18:40.094Z,1.20
2023-01-26T18:21:16.798Z,1.20
2023-01-26T18:23:54.265Z,1.10
2023-01-26T18:26:24.400Z,1.20
2023-01-26T18:28:52.446Z,1.20
2023-01-26T18:31:21.992Z,1.20
2023-01-26T18:33:51.422Z,1.20
2023-01-26T18:36:20.892Z,1.20
2023-01-26T18:42:09.769Z,1.20
2023-01-26T18:44:37.551Z,1.20
2023-01-26T18:47:05.804Z,1.20
2023-01-26T18:49:36.189Z,1.30
2023-01-26T18:52:05.155Z,1.20
2023-01-26T18:54:33.426Z,1.10
2023-01-26T18:57:01.391Z,1.20
2023-01-26T18:59:29.933Z,1.20
2023-01-26T19:01:57.829Z,1.20
2023-01-26T19:04:25.906Z,1.20
